»·PEaware :: AAL956 KSUN-KBOI

AAL956 :: KSUN-KBOI

FLIGHT INFORMATION

Flight Status: Arrived
Operator:
American Airlines
More flights by this operator :: More flights under this callsign
Pilot: Sergei F. (8485)
Aircraft: AIRBUS A320
(A320)
More flights by this aircraft type
Origin: KSUN Friedman Meml
United States
Destination: KBOI Boise Air Terminal/Gowen
United States
More flights between these airports :: More routes between these airports
Route: AUREL3 SOLDE V500 BOI
File this flight plan on PilotEdge
Remarks:
Altitude:
(Current/Filed)
16,000ft
Speed:
(Current/Filed)
400kts
Departed: 08-Mar-19 10:38 PM
Arrived: 08-Mar-19 11:01 PM
Distance/Time
Traveled:
84nm/0:22
Distance/Time
To Go:
Arrived

Flight Plot

Page will automatically refresh every two minutes.

Flight plan parsing failed; only flown route is shown


Map Options




Map Legend


Flown Route
Filed Route
Departure Airport
Arrival Airport
Navaid (VOR, NDB)
Fix

Horizontal Profiles

Position Reports

Time Latitude Longitude Heading Altitude Ground
Speed
08-Mar-19 22:09 43.506878 -114.301826 159 5308ft 0kts
08-Mar-19 22:10 43.506878 -114.301826 159 5308ft 0kts
08-Mar-19 22:11 43.506878 -114.301826 159 5308ft 0kts
08-Mar-19 22:12 43.506878 -114.301826 159 5308ft 0kts
08-Mar-19 22:13 43.506878 -114.301826 159 5308ft 0kts
08-Mar-19 22:14 43.506878 -114.301826 159 5308ft 0kts
08-Mar-19 22:15 43.506878 -114.301826 159 5308ft 0kts
08-Mar-19 22:16 43.506878 -114.301826 159 5308ft 0kts
08-Mar-19 22:17 43.506878 -114.301826 159 5308ft 0kts
08-Mar-19 22:18 43.506878 -114.301826 159 5308ft 0kts
08-Mar-19 22:19 43.506878 -114.301826 159 5308ft 0kts
08-Mar-19 22:20 43.506878 -114.301826 159 5308ft 0kts
08-Mar-19 22:21 43.506878 -114.301826 159 5308ft 0kts
08-Mar-19 22:22 43.507288 -114.301931 201 5309ft 2kts
08-Mar-19 22:23 43.507639 -114.301379 235 5310ft 0kts
08-Mar-19 22:24 43.507638 -114.301380 235 5310ft 0kts
08-Mar-19 22:25 43.507638 -114.301380 235 5310ft 0kts
08-Mar-19 22:26 43.507638 -114.301380 235 5310ft 0kts
08-Mar-19 22:27 43.507638 -114.301380 235 5310ft 0kts
08-Mar-19 22:28 43.507739 -114.300984 285 5310ft 2kts
08-Mar-19 22:29 43.507588 -114.300720 326 5309ft 0kts
08-Mar-19 22:30 43.507588 -114.300720 326 5309ft 0kts
08-Mar-19 22:31 43.507997 -114.301120 324 5310ft 7kts
08-Mar-19 22:32 43.509561 -114.302644 325 5314ft 6kts
08-Mar-19 22:33 43.511080 -114.304120 324 5316ft 4kts
08-Mar-19 22:34 43.511369 -114.304360 341 5317ft 0kts
08-Mar-19 22:35 43.511369 -114.304360 341 5317ft 0kts
08-Mar-19 22:36 43.512003 -114.303580 126 5318ft 4kts
08-Mar-19 22:37 43.505745 -114.297471 145 5298ft 133kts
08-Mar-19 22:38 43.458859 -114.265837 167 7755ft 204kts
08-Mar-19 22:39 43.393308 -114.242720 166 9424ft 283kts
08-Mar-19 22:40 43.319218 -114.276704 243 10983ft 337kts
08-Mar-19 22:41 43.290530 -114.408836 255 12483ft 377kts
08-Mar-19 22:42 43.261992 -114.548832 259 14646ft 386kts
08-Mar-19 22:43 43.278902 -114.692156 285 15972ft 383kts
08-Mar-19 22:44 43.304778 -114.829021 285 15993ft 367kts
08-Mar-19 22:45 43.330265 -114.964484 285 15995ft 367kts
08-Mar-19 22:46 43.355080 -115.097505 284 16048ft 334kts
08-Mar-19 22:47 43.375553 -115.208185 284 15983ft 292kts
08-Mar-19 22:48 43.394875 -115.312700 284 15434ft 287kts
08-Mar-19 22:49 43.414204 -115.417996 284 13051ft 285kts
08-Mar-19 22:50 43.433121 -115.521677 284 11435ft 283kts
08-Mar-19 22:51 43.451890 -115.625217 284 10080ft 272kts
08-Mar-19 22:52 43.468597 -115.718145 283 9955ft 230kts
08-Mar-19 22:53 43.483717 -115.802233 284 8942ft 225kts
08-Mar-19 22:54 43.498215 -115.883286 284 8288ft 206kts
08-Mar-19 22:55 43.511636 -115.958806 284 7423ft 202kts
08-Mar-19 22:56 43.513389 -116.034954 274 6373ft 185kts
08-Mar-19 22:57 43.522512 -116.094137 288 5150ft 140kts
08-Mar-19 22:58 43.537715 -116.142846 297 3893ft 142kts
08-Mar-19 22:59 43.554641 -116.191356 296 3073ft 140kts
08-Mar-19 23:00 43.565526 -116.223186 296 2850ft 13kts
08-Mar-19 23:01 43.566752 -116.223661 73 2850ft 2kts
08-Mar-19 23:02 43.566295 -116.221910 115 2850ft 8kts
08-Mar-19 23:03 43.567039 -116.220161 31 2852ft 0kts
08-Mar-19 23:04 43.567054 -116.220148 31 2852ft 0kts
08-Mar-19 23:05 43.567054 -116.220148 31 2852ft 0kts
08-Mar-19 23:06 43.567054 -116.220148 31 2852ft 0kts
08-Mar-19 23:07 43.567054 -116.220148 31 2852ft 0kts
08-Mar-19 23:08 43.567054 -116.220148 31 2852ft 0kts

Navigation Log

Ident Type
Flight plan parsing failed, navigation log unavailable